createdAt,value
2019-04-20T00:01:01.691Z,8.21
2019-04-20T00:03:40.108Z,7.94
2019-04-20T00:06:09.172Z,7.73
2019-04-20T00:08:42.746Z,7.50
2019-04-20T00:11:24.854Z,7.25
2019-04-20T00:13:59.336Z,7.08
2019-04-20T00:16:21.277Z,6.88
2019-04-20T00:18:56.590Z,6.70
2019-04-20T00:21:43.121Z,6.53
2019-04-20T00:24:22.841Z,7.90
2019-04-20T00:29:39.367Z,12.30
2019-04-20T00:32:06.331Z,12.40
2019-04-20T00:34:35.064Z,11.61
2019-04-20T00:37:05.216Z,10.98
2019-04-20T00:39:36.225Z,10.43
2019-04-20T00:42:13.322Z,9.98
2019-04-20T00:44:45.840Z,9.54
2019-04-20T00:47:32.292Z,9.12
2019-04-20T00:50:08.142Z,8.74
2019-04-20T00:52:32.824Z,8.36
2019-04-20T00:54:58.085Z,8.02
2019-04-20T00:57:38.040Z,7.70
2019-04-20T01:00:21.598Z,7.36
2019-04-20T01:02:53.279Z,7.10
2019-04-20T01:05:29.902Z,6.86
2019-04-20T01:07:56.983Z,6.62
2019-04-20T01:10:37.085Z,6.42
2019-04-20T01:13:08.013Z,6.24
2019-04-20T01:15:46.254Z,6.10
2019-04-20T01:18:10.774Z,5.92
2019-04-20T01:20:43.084Z,7.01
2019-04-20T01:23:20.762Z,9.37
2019-04-20T01:25:56.839Z,11.37
2019-04-20T01:28:37.570Z,11.54
2019-04-20T01:31:06.744Z,10.74
2019-04-20T01:33:42.457Z,10.16
2019-04-20T01:36:20.223Z,9.65
2019-04-20T01:38:52.242Z,9.25
2019-04-20T01:41:09.671Z,8.85
2019-04-20T01:43:43.630Z,8.49
2019-04-20T01:46:19.898Z,8.14
2019-04-20T01:48:48.686Z,7.84
2019-04-20T01:51:26.400Z,7.57
2019-04-20T01:54:13.506Z,7.29
2019-04-20T01:56:43.439Z,7.04
2019-04-20T01:59:20.153Z,6.82
2019-04-20T02:01:55.643Z,6.59
2019-04-20T02:04:40.952Z,6.36
2019-04-20T02:07:12.008Z,6.20
2019-04-20T02:09:51.374Z,6.00
2019-04-20T02:12:22.336Z,5.86
2019-04-20T02:14:57.179Z,5.73
2019-04-20T02:17:31.912Z,5.59
2019-04-20T02:20:19.840Z,5.44
2019-04-20T02:22:46.566Z,6.70
2019-04-20T02:25:09.946Z,9.16
2019-04-20T02:27:48.747Z,11.28
2019-04-20T02:30:47.550Z,11.51
2019-04-20T02:36:04.118Z,9.99
2019-04-20T02:39:05.739Z,9.47
2019-04-20T02:41:17.765Z,8.99
2019-04-20T02:44:04.412Z,8.59
2019-04-20T02:46:22.497Z,8.16
2019-04-20T02:49:01.310Z,7.80
2019-04-20T02:54:13.097Z,7.08
2019-04-20T02:56:41.340Z,6.77
2019-04-20T02:59:42.312Z,6.46
2019-04-20T03:01:30.950Z,6.14
2019-04-20T03:03:51.145Z,5.89
2019-04-20T03:06:30.463Z,5.61
2019-04-20T03:09:22.530Z,5.39
2019-04-20T03:11:59.774Z,5.27
2019-04-20T03:14:19.091Z,6.98
2019-04-20T03:16:56.476Z,9.37
2019-04-20T03:19:25.696Z,11.36
2019-04-20T03:22:09.731Z,11.44
2019-04-20T03:24:45.450Z,10.60
2019-04-20T03:27:07.987Z,9.88
2019-04-20T03:29:56.236Z,9.27
2019-04-20T03:35:12.231Z,8.28
2019-04-20T03:37:44.110Z,7.84
2019-04-20T03:40:04.317Z,7.47
2019-04-20T03:42:24.957Z,7.11
2019-04-20T03:45:03.403Z,6.79
2019-04-20T03:47:38.389Z,6.43
2019-04-20T03:50:31.021Z,6.21
2019-04-20T03:53:02.782Z,5.94
2019-04-20T03:55:37.053Z,5.72
2019-04-20T03:58:15.334Z,5.49
2019-04-20T04:00:50.477Z,5.30
2019-04-20T04:04:05.378Z,6.20
2019-04-20T04:06:12.890Z,8.95
2019-04-20T04:08:39.523Z,11.07
2019-04-20T04:11:26.078Z,11.26
2019-04-20T04:13:41.923Z,10.47
2019-04-20T04:16:17.315Z,9.86
2019-04-20T04:18:59.174Z,9.43
2019-04-20T04:21:41.166Z,9.02
2019-04-20T04:24:09.460Z,8.64
2019-04-20T04:26:45.614Z,8.31
2019-04-20T04:29:27.220Z,8.00
2019-04-20T04:32:03.666Z,7.74
2019-04-20T04:34:31.039Z,7.50
2019-04-20T04:37:03.465Z,7.31
2019-04-20T04:39:35.400Z,7.12
2019-04-20T04:42:16.931Z,6.98
2019-04-20T04:44:34.337Z,6.87
2019-04-20T04:47:01.085Z,6.80
2019-04-20T04:49:35.075Z,6.76
2019-04-20T04:52:10.246Z,6.72
2019-04-20T04:54:46.213Z,6.80
2019-04-20T04:57:09.547Z,7.42
2019-04-20T04:59:42.567Z,8.42
2019-04-20T05:02:14.255Z,9.40
2019-04-20T05:05:15.374Z,10.41
2019-04-20T05:07:46.654Z,11.40
2019-04-20T05:10:05.579Z,12.35
2019-04-20T05:12:38.845Z,13.28
2019-04-20T05:15:21.226Z,14.28
2019-04-20T05:18:06.801Z,15.15
2019-04-20T05:20:47.234Z,15.91
2019-04-20T05:23:30.643Z,16.74
2019-04-20T05:26:14.232Z,17.74
2019-04-20T05:28:42.123Z,18.60
2019-04-20T05:31:05.000Z,19.46
2019-04-20T05:34:02.360Z,20.17
2019-04-20T05:36:29.594Z,20.84
2019-04-20T05:39:17.697Z,21.50
2019-04-20T05:41:38.420Z,22.17
2019-04-20T05:44:09.915Z,22.79
2019-04-20T05:46:50.449Z,23.38
2019-04-20T05:49:23.063Z,24.03
2019-04-20T05:51:54.412Z,24.57
2019-04-20T05:54:36.360Z,25.07
2019-04-20T05:57:10.311Z,25.54
2019-04-20T05:59:45.330Z,25.81
2019-04-20T06:02:11.326Z,25.96
2019-04-20T06:04:58.389Z,26.13
2019-04-20T06:07:22.796Z,26.28
2019-04-20T06:09:54.530Z,26.51
2019-04-20T06:12:30.001Z,26.86
2019-04-20T06:14:53.792Z,27.23
2019-04-20T06:17:40.051Z,27.58
2019-04-20T06:20:16.902Z,27.97
2019-04-20T06:22:48.349Z,28.33
2019-04-20T06:25:39.103Z,28.67
2019-04-20T06:27:59.615Z,29.10
2019-04-20T06:30:27.341Z,29.41
2019-04-20T06:34:19.342Z,29.81
2019-04-20T06:36:43.117Z,30.41
2019-04-20T06:39:17.456Z,30.56
2019-04-20T06:42:05.813Z,30.75
2019-04-20T06:44:22.839Z,31.09
2019-04-20T06:46:58.754Z,31.33
2019-04-20T06:49:29.157Z,31.37
2019-04-20T06:51:59.400Z,31.44
2019-04-20T06:54:39.439Z,31.57
2019-04-20T06:57:18.397Z,31.62
2019-04-20T06:59:46.002Z,31.64
2019-04-20T07:02:24.582Z,31.60
2019-04-20T07:04:57.863Z,31.67
2019-04-20T07:07:32.107Z,31.68
2019-04-20T07:12:43.658Z,31.79
2019-04-20T07:15:17.479Z,31.85
2019-04-20T07:20:39.706Z,31.92
2019-04-20T07:23:21.338Z,31.90
2019-04-20T07:25:42.310Z,31.95
2019-04-20T07:28:23.858Z,32.00
2019-04-20T07:30:53.942Z,32.02
2019-04-20T07:33:27.010Z,32.10
2019-04-20T07:35:56.016Z,32.02
2019-04-20T07:41:17.555Z,31.85
2019-04-20T07:43:57.439Z,31.87
2019-04-20T07:46:34.813Z,31.80
2019-04-20T07:48:56.432Z,31.57
2019-04-20T07:51:14.515Z,31.44
2019-04-20T07:53:59.496Z,31.46
2019-04-20T07:56:37.065Z,31.48
2019-04-20T07:58:55.281Z,31.46
2019-04-20T08:02:01.198Z,31.52
2019-04-20T08:04:36.798Z,31.60
2019-04-20T08:06:58.472Z,31.52
2019-04-20T08:09:35.021Z,31.45
2019-04-20T08:12:29.362Z,31.55
2019-04-20T08:15:05.077Z,31.44
2019-04-20T08:17:46.751Z,31.55
2019-04-20T08:20:10.790Z,31.65
2019-04-20T08:22:53.124Z,31.64
2019-04-20T08:25:23.982Z,31.33
2019-04-20T08:28:01.522Z,30.99
2019-04-20T08:31:05.118Z,30.27
2019-04-20T08:33:54.938Z,29.42
2019-04-20T08:36:30.007Z,28.65
2019-04-20T08:39:16.930Z,27.86
2019-04-20T08:41:24.909Z,27.20
2019-04-20T08:44:23.834Z,26.65
2019-04-20T08:46:54.806Z,26.11
2019-04-20T08:49:22.084Z,25.71
2019-04-20T08:51:56.842Z,25.26
2019-04-20T08:54:21.641Z,24.85
2019-04-20T08:56:41.492Z,24.43
2019-04-20T08:59:09.685Z,24.06
2019-04-20T09:01:42.646Z,23.74
2019-04-20T09:04:22.244Z,23.47
2019-04-20T09:07:02.681Z,23.22
2019-04-20T09:09:49.951Z,22.93
2019-04-20T09:12:16.742Z,22.76
2019-04-20T09:14:30.265Z,22.64
2019-04-20T09:17:30.150Z,22.58
2019-04-20T09:20:04.152Z,22.50
2019-04-20T09:22:40.547Z,22.43
2019-04-20T09:25:43.035Z,22.40
2019-04-20T09:27:48.791Z,22.29
2019-04-20T09:30:27.867Z,22.24
2019-04-20T09:33:20.741Z,22.26
2019-04-20T09:35:43.141Z,22.20
2019-04-20T09:38:14.463Z,22.16
2019-04-20T09:40:51.401Z,22.10
2019-04-20T09:43:10.973Z,22.06
2019-04-20T09:45:53.705Z,21.99
2019-04-20T09:48:32.035Z,21.91
2019-04-20T09:51:19.199Z,21.88
2019-04-20T09:53:45.471Z,21.84
2019-04-20T09:56:19.342Z,21.76
2019-04-20T09:59:09.827Z,21.71
2019-04-20T10:01:31.252Z,21.69
2019-04-20T10:03:54.765Z,21.65
2019-04-20T10:06:30.709Z,21.58
2019-04-20T10:09:03.847Z,21.50
2019-04-20T10:11:37.381Z,21.43
2019-04-20T10:14:10.400Z,21.34
2019-04-20T10:16:44.030Z,21.24
2019-04-20T10:19:20.660Z,21.14
2019-04-20T10:21:50.643Z,21.09
2019-04-20T10:24:26.351Z,21.03
2019-04-20T10:26:58.754Z,20.95
2019-04-20T10:29:33.595Z,20.91
2019-04-20T10:32:10.157Z,20.88
2019-04-20T10:34:39.287Z,20.89
2019-04-20T10:37:13.480Z,20.91
2019-04-20T10:39:46.799Z,20.89
2019-04-20T10:42:18.665Z,20.89
2019-04-20T10:44:55.159Z,20.95
2019-04-20T10:47:25.430Z,20.96
2019-04-20T10:50:00.861Z,20.99
2019-04-20T10:52:33.968Z,21.02
2019-04-20T10:55:08.369Z,21.03
2019-04-20T10:57:41.646Z,21.06
2019-04-20T11:00:15.588Z,21.05
2019-04-20T11:02:49.646Z,21.06
2019-04-20T11:05:22.880Z,21.16
2019-04-20T11:07:55.118Z,21.27
2019-04-20T11:10:46.138Z,21.34
2019-04-20T11:13:05.378Z,21.37
2019-04-20T11:15:38.735Z,21.46
2019-04-20T11:18:11.330Z,21.50
2019-04-20T11:20:45.653Z,21.57
2019-04-20T11:23:20.334Z,21.62
2019-04-20T11:25:58.049Z,21.68
2019-04-20T11:28:30.290Z,21.67
2019-04-20T11:31:02.064Z,21.67
2019-04-20T11:33:34.245Z,21.67
2019-04-20T11:36:07.428Z,21.67
2019-04-20T11:38:40.662Z,21.69
2019-04-20T11:41:18.927Z,21.76
2019-04-20T11:43:47.175Z,21.88
2019-04-20T11:46:20.720Z,21.93
2019-04-20T11:48:55.208Z,21.93
2019-04-20T11:51:31.755Z,21.99
2019-04-20T11:54:06.092Z,21.99
2019-04-20T11:56:43.938Z,22.03
2019-04-20T11:59:16.683Z,22.06
2019-04-20T12:02:14.340Z,22.06
2019-04-20T12:05:10.249Z,22.06
2019-04-20T12:07:27.129Z,22.06
2019-04-20T12:10:09.034Z,21.98
2019-04-20T12:12:42.104Z,21.91
2019-04-20T12:15:10.694Z,21.88
2019-04-20T12:17:43.876Z,21.89
2019-04-20T12:20:16.760Z,21.85
2019-04-20T12:22:50.445Z,21.79
2019-04-20T12:25:23.707Z,21.78
2019-04-20T12:27:59.923Z,21.74
2019-04-20T12:30:30.530Z,21.64
2019-04-20T12:33:03.852Z,21.61
2019-04-20T12:35:38.261Z,21.58
2019-04-20T12:38:10.503Z,21.57
2019-04-20T12:40:42.443Z,21.60
2019-04-20T12:43:15.138Z,21.57
2019-04-20T12:45:47.684Z,21.58
2019-04-20T12:48:21.706Z,21.60
2019-04-20T12:50:53.479Z,21.58
2019-04-20T12:53:26.419Z,21.58
2019-04-20T12:55:58.821Z,21.54
2019-04-20T12:58:30.681Z,21.51
2019-04-20T13:01:02.622Z,21.50
2019-04-20T13:03:35.230Z,21.50
2019-04-20T13:06:08.388Z,21.46
2019-04-20T13:08:47.602Z,21.44
2019-04-20T13:11:20.395Z,21.48
2019-04-20T13:14:22.203Z,21.47
2019-04-20T13:16:55.266Z,21.48
2019-04-20T13:19:29.054Z,21.50
2019-04-20T13:22:01.244Z,21.47
2019-04-20T13:24:33.086Z,21.47
2019-04-20T13:27:04.912Z,21.44
2019-04-20T13:29:38.164Z,21.47
2019-04-20T13:32:10.095Z,21.54
2019-04-20T13:34:42.325Z,21.58
2019-04-20T13:37:15.904Z,21.60
2019-04-20T13:39:49.047Z,21.64
2019-04-20T13:42:24.754Z,21.65
2019-04-20T13:44:54.935Z,21.67
2019-04-20T13:47:28.161Z,21.72
2019-04-20T13:50:01.098Z,21.75
2019-04-20T13:52:33.216Z,21.78
2019-04-20T13:55:08.723Z,21.79
2019-04-20T13:57:42.864Z,21.79
2019-04-20T14:00:31.635Z,21.78
2019-04-20T14:03:18.327Z,21.75
2019-04-20T14:05:53.308Z,21.71
2019-04-20T14:08:29.268Z,21.67
2019-04-20T14:11:07.322Z,21.65
2019-04-20T14:13:43.476Z,21.64
2019-04-20T14:16:18.946Z,21.64
2019-04-20T14:18:51.725Z,21.58
2019-04-20T14:21:27.914Z,21.56
2019-04-20T14:24:01.713Z,21.50
2019-04-20T14:26:36.068Z,21.46
2019-04-20T14:29:10.355Z,21.37
2019-04-20T14:31:48.368Z,21.30
2019-04-20T14:34:20.675Z,21.20
2019-04-20T14:36:55.108Z,21.14
2019-04-20T14:39:32.193Z,21.13
2019-04-20T14:42:04.634Z,21.07
2019-04-20T14:44:37.484Z,21.03
2019-04-20T14:47:09.784Z,21.06
2019-04-20T14:49:42.910Z,21.03
2019-04-20T14:52:15.504Z,21.01
2019-04-20T14:54:47.726Z,21.01
2019-04-20T14:57:19.581Z,20.99
2019-04-20T14:59:54.303Z,20.96
2019-04-20T15:02:30.149Z,20.92
2019-04-20T15:05:07.427Z,20.92
2019-04-20T15:07:40.711Z,20.89
2019-04-20T15:10:13.123Z,20.94
2019-04-20T15:12:50.881Z,20.99
2019-04-20T15:15:18.785Z,20.98
2019-04-20T15:17:53.497Z,20.96
2019-04-20T15:20:25.624Z,20.95
2019-04-20T15:22:59.508Z,20.95
2019-04-20T15:25:31.706Z,20.96
2019-04-20T15:28:08.294Z,20.98
2019-04-20T15:30:40.770Z,20.95
2019-04-20T15:33:18.966Z,20.92
2019-04-20T15:35:52.402Z,20.84
2019-04-20T15:38:24.980Z,20.78
2019-04-20T15:40:59.440Z,20.74
2019-04-20T15:43:33.219Z,20.68
2019-04-20T15:46:07.489Z,20.64
2019-04-20T15:48:39.867Z,20.58
2019-04-20T15:51:17.127Z,20.58
2019-04-20T15:53:57.687Z,20.54
2019-04-20T15:56:35.567Z,20.50
2019-04-20T15:59:08.470Z,20.43
2019-04-20T16:01:45.070Z,20.40
2019-04-20T16:04:37.572Z,20.33
2019-04-20T16:07:08.436Z,20.24
2019-04-20T16:09:42.163Z,20.22
2019-04-20T16:12:15.198Z,20.17
2019-04-20T16:14:51.265Z,20.09
2019-04-20T16:17:36.374Z,20.06
2019-04-20T16:20:06.435Z,19.99
2019-04-20T16:22:34.744Z,19.96
2019-04-20T16:25:27.613Z,19.88
2019-04-20T16:27:59.422Z,19.85
2019-04-20T16:30:31.811Z,19.81
2019-04-20T16:33:06.164Z,19.77
2019-04-20T16:35:40.606Z,19.68
2019-04-20T16:38:12.538Z,19.62
2019-04-20T16:40:44.467Z,19.60
2019-04-20T16:43:24.593Z,19.53
2019-04-20T16:45:50.963Z,19.47
2019-04-20T16:48:24.085Z,19.39
2019-04-20T16:50:56.473Z,19.33
2019-04-20T16:53:28.791Z,19.23
2019-04-20T16:56:01.166Z,19.15
2019-04-20T16:58:34.123Z,19.08
2019-04-20T17:01:07.687Z,18.98
2019-04-20T17:03:50.236Z,18.89
2019-04-20T17:06:13.845Z,18.81
2019-04-20T17:08:48.318Z,18.70
2019-04-20T17:11:25.709Z,18.60
2019-04-20T17:13:59.924Z,18.53
2019-04-20T17:16:31.668Z,18.43
2019-04-20T17:19:05.973Z,18.35
2019-04-20T17:21:44.532Z,18.25
2019-04-20T17:24:17.887Z,18.13
2019-04-20T17:27:05.748Z,18.01
2019-04-20T17:29:56.678Z,17.91
2019-04-20T17:32:31.603Z,17.80
2019-04-20T17:35:18.132Z,17.67
2019-04-20T17:37:45.084Z,17.54
2019-04-20T17:40:44.262Z,17.40
2019-04-20T17:43:07.527Z,17.26
2019-04-20T17:45:42.142Z,17.14
2019-04-20T17:48:18.887Z,16.97
2019-04-20T17:51:07.762Z,16.81
2019-04-20T17:53:37.210Z,16.66
2019-04-20T17:56:05.288Z,16.46
2019-04-20T17:58:41.325Z,16.27
2019-04-20T18:01:41.279Z,16.10
2019-04-20T18:04:43.006Z,15.88
2019-04-20T18:06:58.917Z,15.67
2019-04-20T18:09:38.651Z,15.48
2019-04-20T18:11:56.325Z,15.31
2019-04-20T18:14:43.086Z,15.10
2019-04-20T18:17:17.854Z,14.91
2019-04-20T18:19:45.028Z,14.70
2019-04-20T18:22:19.578Z,14.51
2019-04-20T18:25:14.724Z,14.31
2019-04-20T18:27:41.206Z,14.11
2019-04-20T18:30:15.526Z,13.94
2019-04-20T18:32:37.834Z,13.75
2019-04-20T18:35:24.598Z,13.58
2019-04-20T18:38:00.896Z,13.39
2019-04-20T18:40:37.228Z,13.24
2019-04-20T18:43:09.354Z,13.10
2019-04-20T18:45:58.304Z,12.92
2019-04-20T18:48:33.493Z,12.79
2019-04-20T18:50:47.402Z,12.65
2019-04-20T18:53:28.648Z,12.47
2019-04-20T18:55:56.035Z,12.34
2019-04-20T18:58:25.204Z,12.20
2019-04-20T19:01:01.632Z,12.04
2019-04-20T19:03:40.326Z,11.92
2019-04-20T19:06:09.042Z,11.78
2019-04-20T19:08:46.907Z,11.65
2019-04-20T19:11:19.749Z,11.51
2019-04-20T19:13:51.210Z,11.37
2019-04-20T19:16:34.848Z,11.24
2019-04-20T19:19:16.359Z,11.10
2019-04-20T19:21:35.292Z,10.98
2019-04-20T19:24:12.166Z,10.85
2019-04-20T19:26:48.153Z,10.74
2019-04-20T19:29:23.155Z,10.65
2019-04-20T19:32:08.825Z,10.52
2019-04-20T19:34:36.527Z,10.40
2019-04-20T19:37:10.102Z,10.30
2019-04-20T19:39:47.070Z,10.19
2019-04-20T19:42:19.525Z,10.16
2019-04-20T19:44:51.797Z,10.17
2019-04-20T19:47:34.845Z,10.23
2019-04-20T19:50:00.270Z,10.24
2019-04-20T19:52:44.814Z,10.24
2019-04-20T19:55:10.516Z,10.29
2019-04-20T19:57:42.202Z,10.34
2019-04-20T19:59:59.814Z,10.34
2019-04-20T20:02:31.950Z,10.31
2019-04-20T20:05:08.835Z,10.34
2019-04-20T20:07:42.622Z,10.33
2019-04-20T20:10:12.993Z,10.33
2019-04-20T20:12:52.773Z,10.33
2019-04-20T20:15:26.404Z,10.29
2019-04-20T20:18:11.241Z,10.23
2019-04-20T20:20:47.346Z,10.19
2019-04-20T20:23:02.461Z,10.14
2019-04-20T20:25:41.071Z,10.09
2019-04-20T20:28:19.096Z,10.02
2019-04-20T20:30:58.170Z,9.94
2019-04-20T20:33:35.096Z,9.88
2019-04-20T20:35:58.630Z,9.78
2019-04-20T20:38:31.676Z,9.69
2019-04-20T20:41:07.778Z,9.62
2019-04-20T20:43:45.736Z,9.54
2019-04-20T20:46:16.296Z,9.41
2019-04-20T20:49:03.461Z,9.39
2019-04-20T20:51:34.610Z,9.30
2019-04-20T20:53:59.298Z,9.23
2019-04-20T20:56:24.045Z,9.16
2019-04-20T20:59:00.836Z,9.08
2019-04-20T21:01:28.189Z,9.04
2019-04-20T21:03:58.529Z,8.99
2019-04-20T21:06:32.774Z,8.94
2019-04-20T21:09:08.160Z,8.85
2019-04-20T21:11:42.284Z,8.79
2019-04-20T21:14:19.932Z,8.72
2019-04-20T21:16:57.526Z,8.64
2019-04-20T21:19:35.294Z,8.54
2019-04-20T21:22:03.230Z,8.47
2019-04-20T21:24:30.369Z,8.37
2019-04-20T21:27:07.882Z,8.29
2019-04-20T21:29:44.436Z,8.22
2019-04-20T21:32:15.984Z,8.15
2019-04-20T21:34:51.772Z,8.08
2019-04-20T21:37:22.435Z,8.04
2019-04-20T21:39:59.013Z,7.91
2019-04-20T21:42:28.530Z,7.87
2019-04-20T21:45:09.509Z,7.76
2019-04-20T21:47:36.489Z,7.67
2019-04-20T21:50:27.114Z,7.60
2019-04-20T21:52:48.519Z,7.53
2019-04-20T21:55:18.242Z,7.42
2019-04-20T21:57:54.962Z,7.35
2019-04-20T22:00:37.577Z,7.28
2019-04-20T22:03:11.339Z,7.18
2019-04-20T22:05:42.308Z,7.12
2019-04-20T22:08:17.482Z,7.04
2019-04-20T22:10:47.363Z,6.97
2019-04-20T22:13:25.462Z,6.88
2019-04-20T22:15:59.530Z,6.82
2019-04-20T22:18:27.160Z,6.73
2019-04-20T22:21:12.309Z,8.04
2019-04-20T22:23:50.357Z,10.44
2019-04-20T22:26:18.749Z,12.55
2019-04-20T22:28:40.382Z,12.82
2019-04-20T22:31:13.893Z,12.10
2019-04-20T22:33:47.322Z,11.53
2019-04-20T22:36:20.199Z,11.10
2019-04-20T22:39:09.637Z,10.68
2019-04-20T22:41:52.463Z,10.29
2019-04-20T22:44:21.374Z,9.95
2019-04-20T22:46:52.265Z,9.62
2019-04-20T22:49:39.961Z,9.33
2019-04-20T22:52:11.831Z,9.01
2019-04-20T22:54:51.851Z,8.75
2019-04-20T22:57:21.616Z,8.49
2019-04-20T22:59:51.880Z,8.25
2019-04-20T23:02:13.494Z,8.02
2019-04-20T23:04:46.648Z,7.84
2019-04-20T23:07:18.945Z,7.64
2019-04-20T23:09:54.529Z,7.45
2019-04-20T23:12:26.960Z,7.29
2019-04-20T23:14:58.563Z,7.11
2019-04-20T23:17:37.264Z,6.98
2019-04-20T23:20:13.298Z,6.84
2019-04-20T23:22:43.927Z,6.68
2019-04-20T23:25:13.461Z,6.53
2019-04-20T23:27:45.810Z,6.39
2019-04-20T23:30:23.659Z,6.24
2019-04-20T23:32:51.784Z,7.42
2019-04-20T23:35:26.624Z,9.77
2019-04-20T23:38:02.931Z,11.83
2019-04-20T23:40:31.929Z,12.12
2019-04-20T23:43:17.729Z,11.34
2019-04-20T23:45:52.920Z,10.67
2019-04-20T23:48:38.973Z,10.19
2019-04-20T23:51:34.695Z,9.72
2019-04-20T23:53:54.009Z,9.36
2019-04-20T23:56:17.454Z,8.95
2019-04-20T23:58:51.826Z,8.61
